Time;durP1;ratioP1;P1;durP2;ratioP2;P2;SDS_P1;SDS_P2;PMS_P1;PMS_P2;Temp;Humidity;BMP_temperature;BMP_pressure;BME280_temperature;BME280_humidity;BME280_pressure;Samples;Min_cycle;Max_cycle;Signal;HPM_P1;HPM_P2
2022/05/19 00:00:02;;;;;;;28.30;19.65;;;18.20;99.90;;;;;;5054999;28;20057;-69
2022/05/19 00:02:28;;;;;;;30.33;20.10;;;18.20;99.90;;;;;;5054780;28;20041;-68
2022/05/19 00:04:54;;;;;;;33.03;20.42;;;18.20;99.90;;;;;;5055072;28;20045;-69
2022/05/19 00:07:21;;;;;;;28.73;19.83;;;18.20;99.90;;;;;;5054988;28;20055;-69
2022/05/19 00:09:46;;;;;;;29.63;20.08;;;18.30;99.90;;;;;;5054531;28;20045;-69
2022/05/19 00:12:22;;;;;;;28.88;19.40;;;18.30;99.90;;;;;;5054607;28;20499;-69
2022/05/19 00:14:48;;;;;;;29.60;20.90;;;18.40;99.90;;;;;;5055093;28;20080;-69
2022/05/19 00:17:14;;;;;;;32.28;21.00;;;18.40;99.90;;;;;;5054520;28;20127;-69
2022/05/19 00:19:40;;;;;;;30.65;21.38;;;18.40;99.90;;;;;;5037100;28;20125;-69
2022/05/19 00:22:06;;;;;;;29.30;21.10;;;18.40;99.90;;;;;;5036732;28;20497;-69
2022/05/19 00:24:32;;;;;;;30.30;20.95;;;18.50;99.90;;;;;;5054442;28;20040;-69
2022/05/19 00:26:58;;;;;;;31.83;21.48;;;18.50;99.90;;;;;;5054797;28;20110;-69
2022/05/19 00:29:24;;;;;;;30.67;21.02;;;18.40;99.90;;;;;;5054615;28;20048;-69
2022/05/19 00:31:50;;;;;;;29.75;20.75;;;18.50;99.90;;;;;;5054558;28;20048;-69
2022/05/19 00:34:16;;;;;;;28.52;19.83;;;18.50;99.90;;;;;;5054575;28;20063;-69
2022/05/19 00:36:42;;;;;;;30.23;19.92;;;18.30;99.90;;;;;;5054332;28;20486;-69
2022/05/19 00:39:10;;;;;;;28.58;20.50;;;18.30;99.90;;;;;;5054476;28;20053;-69
2022/05/19 00:41:44;;;;;;;31.13;21.58;;;18.20;99.90;;;;;;5054138;28;20445;-69
2022/05/19 00:44:11;;;;;;;33.20;20.92;;;18.30;99.90;;;;;;5036398;28;20041;-69
2022/05/19 00:46:47;;;;;;;31.80;20.63;;;18.30;99.90;;;;;;5036524;28;20407;-69
2022/05/19 00:49:31;;;;;;;33.22;22.15;;;18.40;99.90;;;;;;5054116;28;20045;-69
2022/05/19 00:52:03;;;;;;;34.75;21.20;;;18.30;99.90;;;;;;5054220;28;20079;-69
2022/05/19 00:54:35;;;;;;;36.55;23.92;;;18.20;99.90;;;;;;5054019;28;20469;-69
2022/05/19 00:57:16;;;;;;;29.77;20.42;;;18.20;99.90;;;;;;5054105;28;20447;-69
2022/05/19 00:59:50;;;;;;;32.55;23.05;;;18.20;99.90;;;;;;5053947;28;20494;-69
2022/05/19 01:02:21;;;;;;;36.28;23.48;;;18.10;99.90;;;;;;5053885;28;20127;-69
2022/05/19 01:05:02;;;;;;;34.15;22.85;;;18.10;99.90;;;;;;5053914;28;20553;-69
2022/05/19 01:07:55;;;;;;;33.40;22.65;;;18.10;99.90;;;;;;5035983;28;20059;-69
2022/05/19 01:10:21;;;;;;;35.63;23.50;;;18.10;99.90;;;;;;5053897;28;20052;-69
2022/05/19 01:12:50;;;;;;;35.13;24.35;;;18.00;99.90;;;;;;5053810;28;20037;-69
2022/05/19 01:15:16;;;;;;;35.20;24.77;;;18.00;99.90;;;;;;5053282;28;20142;-69
2022/05/19 01:17:43;;;;;;;38.40;25.73;;;18.00;99.90;;;;;;5053841;28;20048;-69
2022/05/19 01:20:17;;;;;;;37.30;24.75;;;17.90;99.90;;;;;;5053498;28;20053;-69
2022/05/19 01:22:51;;;;;;;39.92;26.08;;;17.90;99.90;;;;;;5053586;28;20045;-69
2022/05/19 01:25:44;;;;;;;35.60;26.20;;;17.90;99.90;;;;;;5053404;28;20053;-69
2022/05/19 01:28:11;;;;;;;37.95;26.85;;;17.90;99.90;;;;;;5053493;28;20049;-69
2022/05/19 01:30:37;;;;;;;38.03;26.30;;;17.80;99.90;;;;;;5053608;28;20052;-69
2022/05/19 01:33:03;;;;;;;35.05;26.42;;;17.80;99.90;;;;;;5035782;28;20049;-69
2022/05/19 01:35:33;;;;;;;40.78;27.13;;;17.80;99.90;;;;;;5035669;28;20060;-69
2022/05/19 01:38:00;;;;;;;40.63;27.17;;;17.80;99.90;;;;;;5053234;28;20063;-69
2022/05/19 01:40:53;;;;;;;39.38;27.67;;;17.80;99.90;;;;;;5053279;28;20516;-69
2022/05/19 01:43:54;;;;;;;46.80;29.23;;;17.80;99.90;;;;;;5053340;28;20060;-69
2022/05/19 01:46:33;;;;;;;42.78;29.52;;;17.70;99.90;;;;;;5052751;28;20182;-69
2022/05/19 01:49:34;;;;;;;39.67;28.67;;;17.70;99.90;;;;;;5053576;28;20194;-69
2022/05/19 01:52:10;;;;;;;40.53;29.63;;;17.90;99.90;;;;;;5049958;28;20084;-69
2022/05/19 01:54:56;;;;;;;43.72;30.60;;;17.90;99.90;;;;;;5053509;28;20064;-69
2022/05/19 01:57:24;;;;;;;43.22;29.42;;;18.00;99.90;;;;;;5035798;28;20045;-69
2022/05/19 02:00:04;;;;;;;44.92;30.20;;;18.00;99.90;;;;;;5052035;28;20088;-69
2022/05/19 02:02:48;;;;;;;51.78;34.30;;;18.10;99.90;;;;;;5053068;28;20051;-69
2022/05/19 02:05:28;;;;;;;48.13;33.00;;;18.00;99.90;;;;;;5053390;28;20055;-69
2022/05/19 02:07:58;;;;;;;43.08;31.55;;;18.00;99.90;;;;;;5035675;28;20482;-69
2022/05/19 02:10:30;;;;;;;47.60;31.20;;;18.00;99.90;;;;;;5053212;28;20048;-69
2022/05/19 02:13:00;;;;;;;45.30;30.42;;;18.00;99.90;;;;;;5052995;28;20080;-69
2022/05/19 02:15:27;;;;;;;48.55;32.60;;;18.00;99.90;;;;;;5052460;28;20041;-70
2022/05/19 02:17:54;;;;;;;46.38;35.00;;;18.00;99.90;;;;;;5053145;28;20071;-69
2022/05/19 02:20:23;;;;;;;48.80;32.92;;;17.90;99.90;;;;;;5052865;28;20049;-69
2022/05/19 02:22:49;;;;;;;47.97;34.28;;;18.00;99.90;;;;;;5053022;28;20378;-69
2022/05/19 02:25:27;;;;;;;52.10;34.30;;;18.00;99.90;;;;;;5052600;28;20110;-69
2022/05/19 02:28:26;;;;;;;53.75;35.53;;;18.00;99.90;;;;;;5035051;28;20091;-69
2022/05/19 02:30:54;;;;;;;48.97;34.90;;;17.90;99.90;;;;;;5049548;28;20092;-69
2022/05/19 02:33:21;;;;;;;59.40;37.47;;;17.90;99.90;;;;;;5053366;28;20049;-69
2022/05/19 02:35:50;;;;;;;61.17;40.92;;;18.00;99.90;;;;;;5039200;28;20131;-70
2022/05/19 02:38:18;;;;;;;59.28;40.60;;;17.90;99.90;;;;;;5056347;28;20409;-69
2022/05/19 02:40:44;;;;;;;58.08;38.75;;;17.90;99.90;;;;;;5056838;28;20056;-69
2022/05/19 02:43:12;;;;;;;59.05;41.22;;;17.90;99.90;;;;;;5056791;28;20045;-69
2022/05/19 02:45:38;;;;;;;54.63;39.17;;;17.90;99.90;;;;;;5056251;28;20037;-69
2022/05/19 02:48:06;;;;;;;57.30;39.47;;;18.00;99.90;;;;;;5056351;28;20106;-69
2022/05/19 02:50:32;;;;;;;74.50;48.38;;;18.00;99.90;;;;;;5056567;28;20453;-69
2022/05/19 02:52:58;;;;;;;60.40;41.03;;;18.10;99.90;;;;;;5056477;28;20179;-69
2022/05/19 02:55:24;;;;;;;54.70;40.38;;;18.10;99.90;;;;;;5056297;28;20179;-69
2022/05/19 02:57:50;;;;;;;57.83;41.53;;;18.00;99.90;;;;;;5056604;28;20049;-69
2022/05/19 03:00:20;;;;;;;56.05;38.25;;;18.00;99.90;;;;;;5056159;28;20049;-69
2022/05/19 03:02:47;;;;;;;58.55;41.08;;;18.10;99.90;;;;;;5056617;28;20424;-69
2022/05/19 03:05:17;;;;;;;62.20;42.70;;;18.10;99.90;;;;;;5056421;28;20044;-69
2022/05/19 03:07:43;;;;;;;67.03;43.08;;;18.20;99.90;;;;;;5056698;28;20049;-69
2022/05/19 03:10:09;;;;;;;59.25;39.92;;;18.10;99.90;;;;;;5056122;28;20067;-69
2022/05/19 03:12:35;;;;;;;54.13;40.45;;;18.20;99.90;;;;;;5038400;28;20048;-69
2022/05/19 03:15:01;;;;;;;60.08;40.17;;;18.20;99.90;;;;;;5055924;28;20087;-69
2022/05/19 03:17:27;;;;;;;57.88;41.00;;;18.10;99.90;;;;;;5055461;28;20041;-69
2022/05/19 03:19:54;;;;;;;60.53;41.40;;;18.10;99.90;;;;;;5038305;28;20047;-69
2022/05/19 03:22:20;;;;;;;55.92;39.72;;;18.10;99.90;;;;;;5055643;28;20445;-69
2022/05/19 03:24:46;;;;;;;54.72;39.25;;;18.10;99.90;;;;;;5055974;28;20099;-69
2022/05/19 03:27:12;;;;;;;58.53;39.80;;;18.10;99.90;;;;;;5055646;28;20061;-69
2022/05/19 03:29:38;;;;;;;55.20;38.00;;;18.10;99.90;;;;;;5055730;28;20451;-69
2022/05/19 03:32:05;;;;;;;53.88;38.47;;;18.20;99.90;;;;;;5038039;28;20397;-69
2022/05/19 03:34:30;;;;;;;54.35;38.78;;;18.20;99.90;;;;;;5055195;28;20123;-69
2022/05/19 03:36:56;;;;;;;63.00;42.70;;;18.30;99.90;;;;;;5055722;28;20087;-69
2022/05/19 03:39:22;;;;;;;60.45;41.55;;;18.20;99.90;;;;;;5055470;28;20044;-69
2022/05/19 03:41:48;;;;;;;61.25;43.17;;;18.20;99.90;;;;;;5055585;28;20175;-69
2022/05/19 03:44:13;;;;;;;65.85;45.47;;;18.10;99.90;;;;;;5055139;28;20128;-69
2022/05/19 03:46:39;;;;;;;58.28;41.65;;;18.10;99.90;;;;;;5054039;28;20084;-69
2022/05/19 03:49:05;;;;;;;58.95;38.90;;;18.10;99.90;;;;;;5037715;28;20045;-69
2022/05/19 03:51:33;;;;;;;64.50;42.58;;;18.10;99.90;;;;;;5055626;28;20079;-69
2022/05/19 03:53:59;;;;;;;63.13;42.97;;;18.10;99.90;;;;;;5055480;28;20422;-69
2022/05/19 03:56:26;;;;;;;59.55;41.05;;;18.20;99.90;;;;;;5055153;28;20099;-69
2022/05/19 03:58:52;;;;;;;65.30;44.25;;;18.20;99.90;;;;;;5055179;28;20131;-69
2022/05/19 04:01:19;;;;;;;71.13;42.92;;;18.20;99.90;;;;;;5054937;28;20049;-69
2022/05/19 04:03:45;;;;;;;68.97;47.88;;;18.20;99.90;;;;;;5055030;28;20543;-69
2022/05/19 04:06:11;;;;;;;72.22;48.00;;;18.10;99.90;;;;;;5054867;28;20080;-69
2022/05/19 04:08:37;;;;;;;79.68;49.33;;;18.10;99.90;;;;;;5054967;28;20409;-69
2022/05/19 04:11:02;;;;;;;72.75;48.20;;;18.00;99.90;;;;;;5055089;28;20392;-69
2022/05/19 04:13:28;;;;;;;80.45;51.33;;;18.20;99.90;;;;;;5054667;28;20052;-69
2022/05/19 04:15:54;;;;;;;92.72;57.47;;;18.20;99.90;;;;;;5054313;28;20076;-69
2022/05/19 04:18:20;;;;;;;70.07;46.40;;;18.30;99.90;;;;;;5054751;28;20402;-69
2022/05/19 04:20:46;;;;;;;75.50;49.45;;;18.30;99.90;;;;;;5054782;28;20044;-69
2022/05/19 04:23:12;;;;;;;77.10;49.67;;;18.20;99.90;;;;;;5054558;28;20056;-69
2022/05/19 04:25:39;;;;;;;81.43;50.97;;;18.30;99.90;;;;;;5053435;28;20100;-77
2022/05/19 04:28:05;;;;;;;91.32;54.88;;;18.30;99.90;;;;;;5050209;28;20052;-70
2022/05/19 04:30:31;;;;;;;82.85;52.47;;;18.40;99.90;;;;;;5055999;28;20099;-69
2022/05/19 04:32:57;;;;;;;86.78;56.42;;;18.40;99.90;;;;;;5074271;28;20087;-69
2022/05/19 04:35:25;;;;;;;83.70;53.13;;;18.50;99.90;;;;;;5074383;28;20045;-69
2022/05/19 04:37:51;;;;;;;85.70;55.03;;;18.40;99.90;;;;;;5074449;28;20071;-69
2022/05/19 04:40:18;;;;;;;76.40;50.03;;;18.40;99.90;;;;;;5056390;28;20044;-69
2022/05/19 04:42:45;;;;;;;78.22;50.80;;;18.50;99.90;;;;;;5056373;28;20037;-69
2022/05/19 04:45:14;;;;;;;88.35;56.60;;;18.40;99.90;;;;;;5074381;28;20373;-69
2022/05/19 04:47:40;;;;;;;77.90;53.13;;;18.50;99.90;;;;;;5073464;28;20488;-69
2022/05/19 04:50:07;;;;;;;86.53;57.55;;;18.60;99.90;;;;;;5074260;28;20089;-69
2022/05/19 04:52:33;;;;;;;91.78;57.53;;;18.70;99.90;;;;;;5074110;28;20040;-69
2022/05/19 04:54:59;;;;;;;84.15;54.47;;;18.80;99.90;;;;;;5074072;28;20045;-69
2022/05/19 04:57:25;;;;;;;80.80;52.90;;;18.80;99.90;;;;;;5056379;28;20048;-69
2022/05/19 04:59:50;;;;;;;85.57;56.28;;;18.90;99.90;;;;;;5073770;28;20044;-71
2022/05/19 05:02:16;;;;;;;90.35;57.60;;;18.90;99.90;;;;;;5073956;28;20048;-69
2022/05/19 05:04:42;;;;;;;84.32;53.78;;;19.10;99.90;;;;;;5056285;28;20438;-69
2022/05/19 05:07:08;;;;;;;81.82;52.55;;;19.10;99.90;;;;;;5056228;28;20060;-69
2022/05/19 05:09:33;;;;;;;79.32;55.50;;;19.10;99.90;;;;;;5056092;28;20398;-69
2022/05/19 05:11:59;;;;;;;86.35;57.45;;;19.20;99.90;;;;;;5073729;28;20041;-69
2022/05/19 05:14:25;;;;;;;80.22;54.67;;;19.30;99.90;;;;;;5073909;28;20389;-69
2022/05/19 05:16:53;;;;;;;79.90;55.50;;;19.30;99.90;;;;;;5055730;28;20045;-69
2022/05/19 05:19:22;;;;;;;72.85;49.58;;;19.40;99.90;;;;;;5073896;28;20083;-69
2022/05/19 05:21:50;;;;;;;71.72;48.70;;;19.30;99.90;;;;;;5056263;28;20052;-69
2022/05/19 05:24:17;;;;;;;70.35;49.85;;;19.50;99.90;;;;;;5073396;28;20043;-69
2022/05/19 05:26:43;;;;;;;72.07;48.50;;;19.60;99.90;;;;;;5073631;28;20056;-69
2022/05/19 05:29:08;;;;;;;66.30;45.40;;;19.80;99.90;;;;;;5073330;28;20078;-69
2022/05/19 05:31:34;;;;;;;71.22;48.80;;;19.80;99.90;;;;;;5073526;28;20087;-69
2022/05/19 05:34:01;;;;;;;60.70;42.67;;;19.90;99.90;;;;;;5073869;28;20047;-69
2022/05/19 05:36:27;;;;;;;65.30;45.55;;;20.00;99.90;;;;;;5073432;28;20082;-69
2022/05/19 05:38:53;;;;;;;64.75;44.83;;;20.00;99.90;;;;;;5073628;28;20063;-69
2022/05/19 05:41:18;;;;;;;66.35;46.67;;;20.10;99.90;;;;;;5073246;28;20044;-69
2022/05/19 05:43:44;;;;;;;65.50;45.75;;;20.10;99.90;;;;;;5073351;28;20082;-69
2022/05/19 05:46:16;;;;;;;61.30;43.67;;;20.20;99.90;;;;;;5072783;28;20044;-69
2022/05/19 05:48:46;;;;;;;62.70;42.08;;;20.30;99.90;;;;;;5073645;28;20432;-69
2022/05/19 05:51:13;;;;;;;54.83;40.33;;;20.50;99.90;;;;;;5073426;28;20547;-69
2022/05/19 05:53:41;;;;;;;57.92;40.35;;;20.40;99.90;;;;;;5073230;28;20048;-69
2022/05/19 05:56:10;;;;;;;49.50;37.38;;;20.60;99.90;;;;;;5073395;28;20044;-69
2022/05/19 05:58:36;;;;;;;52.38;35.83;;;20.50;99.90;;;;;;5055508;28;20451;-69
2022/05/19 06:01:03;;;;;;;48.75;32.88;;;20.40;99.90;;;;;;5073560;28;20082;-69
2022/05/19 06:03:29;;;;;;;47.63;33.50;;;20.40;99.90;;;;;;5073197;28;20509;-69
2022/05/19 06:05:55;;;;;;;45.78;31.35;;;20.30;99.90;;;;;;5055557;28;20090;-69
2022/05/19 06:08:20;;;;;;;41.35;30.23;;;20.20;99.90;;;;;;5073496;28;20044;-69
2022/05/19 06:10:46;;;;;;;47.13;31.65;;;20.20;99.90;;;;;;5077225;28;20049;-70
2022/05/19 06:13:12;;;;;;;41.45;30.25;;;20.20;99.90;;;;;;5059325;28;20048;-69
2022/05/19 06:15:38;;;;;;;42.83;30.60;;;20.10;99.90;;;;;;5076742;28;20122;-69
2022/05/19 06:18:04;;;;;;;44.10;30.08;;;20.20;99.90;;;;;;5077710;28;20047;-69
2022/05/19 06:20:30;;;;;;;43.88;31.45;;;20.30;99.90;;;;;;5077028;28;20560;-69
2022/05/19 06:22:58;;;;;;;40.20;28.63;;;20.40;99.90;;;;;;5077042;28;20040;-69
2022/05/19 06:25:24;;;;;;;45.70;29.30;;;20.50;99.90;;;;;;5076822;28;20113;-69
2022/05/19 06:27:51;;;;;;;45.35;27.35;;;20.60;99.90;;;;;;5077031;28;20397;-69
2022/05/19 06:30:19;;;;;;;45.42;30.67;;;20.70;99.90;;;;;;5058980;28;20084;-69
2022/05/19 06:32:47;;;;;;;36.53;28.15;;;20.70;99.90;;;;;;5076949;28;20044;-69
2022/05/19 06:35:14;;;;;;;41.60;29.73;;;20.90;99.90;;;;;;5076504;28;20497;-69
2022/05/19 06:37:40;;;;;;;39.85;27.92;;;21.00;99.90;;;;;;5076461;28;20044;-69
2022/05/19 06:40:07;;;;;;;38.35;27.55;;;21.00;99.90;;;;;;5058987;28;20051;-69
2022/05/19 06:42:33;;;;;;;41.38;27.10;;;21.00;99.90;;;;;;5076460;28;20492;-69
2022/05/19 06:45:00;;;;;;;41.50;26.42;;;21.10;99.90;;;;;;5058750;28;20408;-69
2022/05/19 06:47:26;;;;;;;38.45;27.60;;;21.10;99.90;;;;;;5058787;28;20500;-69
2022/05/19 06:49:54;;;;;;;39.42;25.17;;;21.20;99.90;;;;;;5076365;28;20045;-69
2022/05/19 06:52:29;;;;;;;36.45;25.75;;;21.20;99.90;;;;;;5076157;28;20489;-69
2022/05/19 06:54:58;;;;;;;38.28;26.30;;;21.10;99.90;;;;;;5076412;28;20044;-69
2022/05/19 06:57:25;;;;;;;34.28;25.30;;;20.90;99.90;;;;;;5074764;28;20048;-69
2022/05/19 06:59:52;;;;;;;32.75;23.35;;;20.80;99.90;;;;;;5066152;28;20123;-69
2022/05/19 07:02:20;;;;;;;39.10;25.50;;;20.90;99.90;;;;;;5067418;28;20416;-69
2022/05/19 07:04:46;;;;;;;42.85;26.48;;;21.10;99.90;;;;;;5068700;28;20448;-69
2022/05/19 07:07:12;;;;;;;37.17;28.60;;;21.10;99.90;;;;;;5076173;28;20040;-69
2022/05/19 07:09:38;;;;;;;47.38;30.00;;;21.00;99.90;;;;;;5076081;28;20099;-68
2022/05/19 07:12:05;;;;;;;48.85;32.80;;;20.80;99.90;;;;;;5076093;28;20400;-69
2022/05/19 07:14:32;;;;;;;50.15;33.30;;;20.80;99.90;;;;;;5076120;28;20090;-69
2022/05/19 07:16:57;;;;;;;47.38;34.42;;;20.60;99.90;;;;;;5075508;28;20114;-69
2022/05/19 07:22:15;;;;;;;47.65;34.10;;;20.40;99.90;;;;;;5067918;28;20122;-69
2022/05/19 07:24:40;;;;;;;45.67;31.65;;;20.50;99.90;;;;;;5068726;28;20036;-69
2022/05/19 07:27:06;;;;;;;41.60;29.42;;;20.40;99.90;;;;;;5074592;28;20404;-69
2022/05/19 07:29:32;;;;;;;37.45;26.67;;;20.40;99.90;;;;;;5075597;28;20040;-72
2022/05/19 07:32:00;;;;;;;32.70;25.98;;;20.60;99.90;;;;;;5058244;28;20118;-70
2022/05/19 07:34:28;;;;;;;33.75;24.73;;;20.80;99.90;;;;;;5075537;28;20055;-70
2022/05/19 07:36:55;;;;;;;35.28;24.25;;;20.90;99.90;;;;;;5076036;28;20052;-70
2022/05/19 07:39:21;;;;;;;30.15;24.88;;;20.90;99.90;;;;;;5057786;28;20120;-70
2022/05/19 07:41:47;;;;;;;36.42;26.70;;;20.80;99.90;;;;;;5075725;28;20443;-72
2022/05/19 07:44:13;;;;;;;31.85;24.63;;;20.70;99.90;;;;;;5078719;28;20045;-71
2022/05/19 07:46:39;;;;;;;28.95;23.23;;;20.80;99.90;;;;;;5076309;28;20052;-71
2022/05/19 07:49:05;;;;;;;36.20;25.60;;;21.00;99.90;;;;;;5057161;28;20370;-71
2022/05/19 07:51:36;;;;;;;26.05;21.23;;;21.10;99.90;;;;;;5057713;28;20055;-71
2022/05/19 07:54:07;;;;;;;31.40;22.83;;;21.20;99.90;;;;;;5075575;28;20067;-70
2022/05/19 07:56:33;;;;;;;29.52;22.67;;;21.10;99.90;;;;;;5075111;28;20040;-70
2022/05/19 07:59:00;;;;;;;27.75;22.13;;;21.10;99.90;;;;;;5075415;28;20056;-70
2022/05/19 08:01:26;;;;;;;36.33;27.02;;;20.80;99.90;;;;;;5075094;28;20045;-74
2022/05/19 08:03:52;;;;;;;30.15;24.55;;;20.80;99.90;;;;;;5075175;28;20044;-71
2022/05/19 08:06:18;;;;;;;35.15;25.75;;;20.70;99.90;;;;;;5074985;28;20037;-71
2022/05/19 08:08:44;;;;;;;30.48;24.48;;;20.80;99.90;;;;;;5075108;28;20044;-71
2022/05/19 08:11:10;;;;;;;32.90;25.80;;;20.90;99.90;;;;;;5075083;28;20037;-71
2022/05/19 08:16:22;;;;;;;43.28;29.30;;;21.10;99.90;;;;;;5074552;28;20062;-71
2022/05/19 08:18:49;;;;;;;33.25;25.42;;;21.20;99.90;;;;;;5074809;28;20123;-71
2022/05/19 08:21:16;;;;;;;35.25;25.88;;;21.20;99.90;;;;;;5074868;28;20116;-71
2022/05/19 08:23:45;;;;;;;35.45;25.80;;;20.90;99.90;;;;;;5074505;28;20131;-71
2022/05/19 08:26:12;;;;;;;39.92;29.38;;;20.90;99.90;;;;;;5074461;28;20052;-71
2022/05/19 08:28:39;;;;;;;33.13;26.35;;;21.00;99.90;;;;;;5074435;28;20071;-71
2022/05/19 08:31:14;;;;;;;39.28;27.83;;;21.00;99.90;;;;;;5074081;28;20049;-73
2022/05/19 08:33:41;;;;;;;35.92;27.70;;;21.00;99.90;;;;;;5074569;28;20087;-71
2022/05/19 08:36:08;;;;;;;36.30;25.83;;;21.00;99.90;;;;;;5074358;28;20048;-71
2022/05/19 08:38:34;;;;;;;43.83;28.92;;;21.00;99.90;;;;;;5074555;28;20451;-71
2022/05/19 08:41:14;;;;;;;37.50;27.42;;;21.10;99.90;;;;;;5074304;28;20453;-71
2022/05/19 08:43:59;;;;;;;39.42;28.92;;;21.00;99.90;;;;;;5074946;28;20114;-71
2022/05/19 08:46:36;;;;;;;36.58;29.23;;;21.10;99.90;;;;;;5073777;28;20048;-71
2022/05/19 08:49:07;;;;;;;36.80;27.48;;;21.00;99.90;;;;;;5056526;28;20070;-71
2022/05/19 08:51:48;;;;;;;42.17;30.33;;;20.80;99.90;;;;;;5073914;28;20493;-71
2022/05/19 08:54:20;;;;;;;46.17;30.67;;;20.90;99.90;;;;;;5074098;28;20089;-71
2022/05/19 08:57:13;;;;;;;35.95;26.35;;;20.90;99.90;;;;;;5074519;28;20047;-71
2022/05/19 08:59:39;;;;;;;32.70;25.30;;;21.00;99.90;;;;;;5073876;28;20127;-71
2022/05/19 09:02:07;;;;;;;36.78;26.70;;;21.20;99.90;;;;;;5073682;28;20140;-71
2022/05/19 09:04:50;;;;;;;30.10;24.35;;;21.30;99.90;;;;;;5073969;28;20040;-86
2022/05/19 09:07:58;;;;;;;34.42;22.08;;;21.40;99.90;;;;;;5056311;28;20080;-86
2022/05/19 09:10:36;;;;;;;42.20;20.60;;;21.10;99.90;;;;;;5056396;28;20057;-84
2022/05/19 09:13:31;;;;;;;25.15;18.40;;;21.10;99.90;;;;;;5056208;28;20481;-86
2022/05/19 09:16:00;;;;;;;32.45;17.15;;;21.40;99.90;;;;;;5021709;28;20153;-88
2022/05/19 09:18:32;;;;;;;49.22;18.13;;;21.60;99.90;;;;;;5055772;28;20045;-86
2022/05/19 09:21:00;;;;;;;41.00;16.98;;;21.60;99.90;;;;;;5039541;28;20053;-86
2022/05/19 09:23:26;;;;;;;36.83;16.88;;;21.50;99.90;;;;;;5056084;28;20048;-88
2022/05/19 09:26:09;;;;;;;42.55;15.32;;;21.80;99.90;;;;;;5022801;28;20504;-86
2022/05/19 09:28:35;;;;;;;23.77;14.35;;;22.00;99.90;;;;;;5055864;28;20057;-87
2022/05/19 09:31:02;;;;;;;41.55;13.57;;;22.10;99.90;;;;;;5039531;28;20435;-87
2022/05/19 09:33:34;;;;;;;22.88;12.27;;;21.70;99.90;;;;;;5039458;28;20083;-88
2022/05/19 09:36:05;;;;;;;39.03;12.63;;;21.90;99.90;;;;;;5056036;28;20424;-88
2022/05/19 09:38:37;;;;;;;17.45;9.75;;;22.10;99.90;;;;;;5040438;28;20114;-88
2022/05/19 09:41:28;;;;;;;16.25;10.23;;;22.30;99.90;;;;;;5056252;28;20079;-87
2022/05/19 09:43:57;;;;;;;20.60;10.65;;;22.40;99.90;;;;;;5054356;28;20405;-87
2022/05/19 09:46:23;;;;;;;15.23;9.52;;;22.40;99.90;;;;;;5055522;28;20045;-87
2022/05/19 09:49:06;;;;;;;22.05;9.93;;;22.40;99.90;;;;;;5055775;28;20526;-79
2022/05/19 09:51:42;;;;;;;16.88;9.43;;;22.60;99.90;;;;;;5056199;28;20127;-89
2022/05/19 09:54:15;;;;;;;17.45;10.50;;;22.70;99.90;;;;;;5039590;28;20480;-89
2022/05/19 09:56:59;;;;;;;15.60;10.18;;;22.60;99.90;;;;;;5040632;28;20048;-89
2022/05/19 09:59:45;;;;;;;14.95;10.60;;;22.60;99.90;;;;;;5056228;28;20094;-88
2022/05/19 10:02:38;;;;;;;15.10;10.38;;;22.30;99.90;;;;;;5055946;28;20052;-88
2022/05/19 10:05:37;;;;;;;14.98;9.15;;;22.60;99.90;;;;;;5056215;28;20045;-88
2022/05/19 10:08:35;;;;;;;15.80;10.73;;;22.80;99.90;;;;;;5072274;28;20053;-72
2022/05/19 10:11:06;;;;;;;13.43;9.45;;;23.00;99.90;;;;;;5071241;28;20209;-78
2022/05/19 10:13:38;;;;;;;15.15;9.68;;;23.00;99.90;;;;;;5040120;28;20083;-77
2022/05/19 10:16:26;;;;;;;14.48;10.38;;;22.60;99.90;;;;;;5054816;28;20048;-77
2022/05/19 10:19:21;;;;;;;20.50;12.50;;;22.70;99.90;;;;;;5038682;28;20102;-78
2022/05/19 10:22:05;;;;;;;19.10;12.82;;;22.70;99.90;;;;;;5035489;28;20053;-76
2022/05/19 10:24:49;;;;;;;20.80;12.57;;;22.80;99.90;;;;;;5052859;28;20088;-76
2022/05/19 10:33:40;;;;;;;20.42;14.13;;;23.40;99.90;;;;;;5055470;28;20063;-76
2022/05/19 10:36:22;;;;;;;18.95;10.25;;;23.70;99.90;;;;;;5055088;28;20048;-76
2022/05/19 10:39:06;;;;;;;13.00;9.63;;;24.00;99.90;;;;;;5055084;28;20178;-81
2022/05/19 10:42:13;;;;;;;14.13;9.45;;;23.80;99.90;;;;;;5036856;28;20058;-80
2022/05/19 10:45:00;;;;;;;14.40;9.63;;;24.00;99.90;;;;;;5030956;28;20072;-80
2022/05/19 10:48:15;;;;;;;15.27;10.32;;;23.70;99.90;;;;;;5034997;28;20141;-80
2022/05/19 10:51:14;;;;;;;12.00;8.00;;;23.40;99.90;;;;;;4990737;28;20132;-80
2022/05/19 10:53:46;;;;;;;10.80;7.50;;;23.70;99.90;;;;;;5034995;28;20075;-74
2022/05/19 10:56:43;;;;;;;14.30;8.38;;;24.00;99.90;;;;;;5055961;28;20489;-75
2022/05/19 10:59:17;;;;;;;;;;;24.00;99.90;;;;;;5060059;28;20611;-75
2022/05/19 11:02:09;;;;;;;7.70;6.72;;;24.00;99.90;;;;;;5062639;28;19926;-74
2022/05/19 11:04:57;;;;;;;15.77;9.63;;;24.10;99.90;;;;;;5057831;28;20053;-75
2022/05/19 11:07:53;;;;;;;13.48;9.73;;;24.20;99.90;;;;;;5031739;28;20056;-74
2022/05/19 11:10:52;;;;;;;12.67;9.07;;;23.90;99.90;;;;;;5064521;28;20048;-74
2022/05/19 11:13:42;;;;;;;14.05;8.20;;;23.70;99.90;;;;;;5044066;28;21104;-74
2022/05/19 11:16:31;;;;;;;17.30;10.60;;;23.90;99.90;;;;;;5055358;28;20048;-74
2022/05/19 11:19:06;;;;;;;16.85;9.93;;;24.00;99.90;;;;;;5055950;28;20049;-73
2022/05/19 11:21:53;;;;;;;17.02;11.02;;;24.40;99.90;;;;;;5056199;28;20045;-74
2022/05/19 11:26:23;;;;;;;14.88;10.55;;;24.50;99.90;;;;;;5038617;28;20227;-74
2022/05/19 11:27:28;;;;;;;13.32;10.90;;;24.70;99.90;;;;;;5061611;28;20065;-74
2022/05/19 11:30:07;;;;;;;16.58;11.10;;;25.10;99.90;;;;;;5042022;28;20115;-74
2022/05/19 11:32:35;;;;;;;17.80;12.07;;;25.30;99.90;;;;;;5055903;28;20094;-85
2022/05/19 11:35:25;;;;;;;12.95;9.93;;;25.40;99.90;;;;;;5038506;28;20072;-89
2022/05/19 11:38:12;;;;;;;17.55;11.48;;;25.20;99.90;;;;;;5058645;28;20488;-91
2022/05/19 11:40:57;;;;;;;17.63;12.20;;;25.30;99.90;;;;;;5058764;28;20044;-94
2022/05/19 11:43:32;;;;;;;17.35;13.02;;;25.20;99.90;;;;;;5039080;28;20048;-91
2022/05/19 11:46:06;;;;;;;18.98;13.82;;;25.10;99.90;;;;;;5038111;28;20501;-86
2022/05/19 11:57:32;;;;;;;18.83;15.02;;;26.10;99.90;;;;;;5054081;28;20147;-90
2022/05/19 12:00:03;;;;;;;18.73;14.57;;;26.00;99.90;;;;;;5042236;28;20053;-90
2022/05/19 12:02:37;;;;;;;21.30;15.13;;;26.00;99.90;;;;;;5021826;28;20631;-92
2022/05/19 12:05:11;;;;;;;19.60;15.55;;;26.20;99.90;;;;;;5038693;28;20049;-91
2022/05/19 12:07:45;;;;;;;18.15;13.20;;;26.40;99.90;;;;;;5036937;28;20045;-94
2022/05/19 12:10:17;;;;;;;16.88;13.73;;;26.30;99.90;;;;;;5038504;28;20040;-94
2022/05/19 12:12:50;;;;;;;17.48;13.57;;;26.30;99.90;;;;;;5038176;28;20120;-92
2022/05/19 12:15:23;;;;;;;19.98;13.45;;;26.20;99.90;;;;;;5025907;28;20052;-92
2022/05/19 12:17:59;;;;;;;17.23;13.10;;;26.20;99.90;;;;;;5023725;28;20505;-92
2022/05/19 12:20:51;;;;;;;17.92;13.65;;;26.10;99.90;;;;;;5028989;28;20044;-94
2022/05/19 12:23:25;;;;;;;16.83;12.50;;;25.70;99.90;;;;;;5021097;28;20041;-93
2022/05/19 12:26:05;;;;;;;16.30;12.10;;;25.70;99.90;;;;;;5022723;28;20041;-94
2022/05/19 12:28:57;;;;;;;16.00;11.55;;;25.70;99.90;;;;;;5038544;28;20053;-93
2022/05/19 12:34:22;;;;;;;11.95;10.20;;;25.50;99.90;;;;;;5036822;28;23121;-90
2022/05/19 12:37:26;;;;;;;14.65;9.02;;;25.50;99.90;;;;;;5055966;28;20482;-70
2022/05/19 12:40:26;;;;;;;11.30;8.57;;;25.50;99.90;;;;;;5066958;28;20401;-71
2022/05/19 12:43:08;;;;;;;13.05;8.85;;;25.70;99.90;;;;;;5060592;28;20090;-72
2022/05/19 12:45:56;;;;;;;14.05;9.40;;;25.80;99.90;;;;;;5062411;28;20041;-71
2022/05/19 12:48:31;;;;;;;11.10;8.52;;;25.90;99.90;;;;;;5054054;28;20106;-70
2022/05/19 12:51:06;;;;;;;14.47;9.10;;;26.00;99.90;;;;;;5054216;28;20056;-81
2022/05/19 12:53:49;;;;;;;11.32;9.35;;;25.50;99.90;;;;;;5020035;28;20166;-72
2022/05/19 12:56:46;;;;;;;16.58;9.35;;;25.10;99.90;;;;;;5054312;28;20101;-71
2022/05/19 12:59:53;;;;;;;19.50;9.82;;;25.10;99.90;;;;;;5053962;28;20436;-71
2022/05/19 13:02:54;;;;;;;13.07;9.13;;;25.10;99.90;;;;;;5036417;28;20556;-71
2022/05/19 13:05:26;;;;;;;12.77;9.05;;;25.10;99.90;;;;;;5036724;28;20084;-71
2022/05/19 13:07:59;;;;;;;13.75;8.27;;;25.00;99.90;;;;;;5036418;28;20049;-70
2022/05/19 13:10:34;;;;;;;8.90;4.90;;;24.70;99.90;;;;;;5036287;28;20067;-70
2022/05/19 13:13:34;;;;;;;6.33;4.30;;;24.00;99.90;;;;;;5038040;28;20045;-70
2022/05/19 13:16:12;;;;;;;5.53;2.67;;;23.10;99.90;;;;;;5053660;28;20044;-70
2022/05/19 13:18:43;;;;;;;9.00;2.05;;;22.50;99.90;;;;;;5052140;28;20068;-79